sensor_id;sensor_type;location;lat;lon;timestamp;P1;durP1;ratioP1;P2;durP2;ratioP2
5225;SDS011;2632;51.666;7.146;2022-07-22T00:01:44;1.53;;;1.43;;
5225;SDS011;2632;51.666;7.146;2022-07-22T00:04:11;3.13;;;1.80;;
5225;SDS011;2632;51.666;7.146;2022-07-22T00:06:37;0.93;;;0.93;;
5225;SDS011;2632;51.666;7.146;2022-07-22T00:09:04;3.30;;;1.70;;
5225;SDS011;2632;51.666;7.146;2022-07-22T00:11:31;2.67;;;1.77;;
5225;SDS011;2632;51.666;7.146;2022-07-22T00:13:57;2.53;;;1.60;;
5225;SDS011;2632;51.666;7.146;2022-07-22T00:16:24;2.20;;;2.00;;
5225;SDS011;2632;51.666;7.146;2022-07-22T00:18:51;1.73;;;1.50;;
5225;SDS011;2632;51.666;7.146;2022-07-22T00:21:18;3.40;;;1.77;;
5225;SDS011;2632;51.666;7.146;2022-07-22T00:23:45;4.83;;;1.90;;
5225;SDS011;2632;51.666;7.146;2022-07-22T00:26:12;5.83;;;1.90;;
5225;SDS011;2632;51.666;7.146;2022-07-22T00:28:38;5.13;;;2.13;;
5225;SDS011;2632;51.666;7.146;2022-07-22T00:31:05;1.77;;;1.10;;
5225;SDS011;2632;51.666;7.146;2022-07-22T00:33:32;3.67;;;2.10;;
5225;SDS011;2632;51.666;7.146;2022-07-22T00:35:58;1.57;;;1.30;;
5225;SDS011;2632;51.666;7.146;2022-07-22T00:38:25;1.90;;;1.50;;
5225;SDS011;2632;51.666;7.146;2022-07-22T00:40:52;4.00;;;1.97;;
5225;SDS011;2632;51.666;7.146;2022-07-22T00:43:18;4.07;;;2.20;;
5225;SDS011;2632;51.666;7.146;2022-07-22T00:45:45;2.60;;;2.30;;
5225;SDS011;2632;51.666;7.146;2022-07-22T00:48:12;4.30;;;1.77;;
5225;SDS011;2632;51.666;7.146;2022-07-22T00:50:38;3.43;;;2.23;;
5225;SDS011;2632;51.666;7.146;2022-07-22T00:53:05;2.50;;;1.57;;
5225;SDS011;2632;51.666;7.146;2022-07-22T00:55:35;5.53;;;2.10;;
5225;SDS011;2632;51.666;7.146;2022-07-22T00:58:03;5.23;;;2.00;;
5225;SDS011;2632;51.666;7.146;2022-07-22T01:00:30;2.67;;;1.90;;
5225;SDS011;2632;51.666;7.146;2022-07-22T01:02:57;3.07;;;1.60;;
5225;SDS011;2632;51.666;7.146;2022-07-22T01:05:23;2.43;;;1.40;;
5225;SDS011;2632;51.666;7.146;2022-07-22T01:07:50;4.53;;;2.70;;
5225;SDS011;2632;51.666;7.146;2022-07-22T01:10:16;7.40;;;2.93;;
5225;SDS011;2632;51.666;7.146;2022-07-22T01:12:43;4.70;;;2.03;;
5225;SDS011;2632;51.666;7.146;2022-07-22T01:15:11;5.03;;;2.40;;
5225;SDS011;2632;51.666;7.146;2022-07-22T01:17:37;6.60;;;2.20;;
5225;SDS011;2632;51.666;7.146;2022-07-22T01:20:05;3.10;;;2.00;;
5225;SDS011;2632;51.666;7.146;2022-07-22T01:22:32;4.20;;;1.97;;
5225;SDS011;2632;51.666;7.146;2022-07-22T01:24:59;2.93;;;2.00;;
5225;SDS011;2632;51.666;7.146;2022-07-22T01:27:26;2.33;;;1.90;;
5225;SDS011;2632;51.666;7.146;2022-07-22T01:29:53;2.53;;;1.60;;
5225;SDS011;2632;51.666;7.146;2022-07-22T01:32:19;7.73;;;2.30;;
5225;SDS011;2632;51.666;7.146;2022-07-22T01:34:46;8.20;;;2.23;;
5225;SDS011;2632;51.666;7.146;2022-07-22T01:37:12;4.43;;;2.97;;
5225;SDS011;2632;51.666;7.146;2022-07-22T01:39:39;7.33;;;2.43;;
5225;SDS011;2632;51.666;7.146;2022-07-22T01:42:06;2.90;;;2.40;;
5225;SDS011;2632;51.666;7.146;2022-07-22T01:44:33;7.20;;;2.00;;
5225;SDS011;2632;51.666;7.146;2022-07-22T01:47:00;7.07;;;2.70;;
5225;SDS011;2632;51.666;7.146;2022-07-22T01:49:26;4.37;;;2.27;;
5225;SDS011;2632;51.666;7.146;2022-07-22T01:51:53;3.30;;;2.43;;
5225;SDS011;2632;51.666;7.146;2022-07-22T01:54:20;2.33;;;1.63;;
5225;SDS011;2632;51.666;7.146;2022-07-22T01:56:49;4.57;;;2.50;;
5225;SDS011;2632;51.666;7.146;2022-07-22T01:59:16;4.97;;;2.37;;
5225;SDS011;2632;51.666;7.146;2022-07-22T02:01:43;6.13;;;2.87;;
5225;SDS011;2632;51.666;7.146;2022-07-22T02:04:09;6.47;;;2.13;;
5225;SDS011;2632;51.666;7.146;2022-07-22T02:06:36;6.90;;;3.30;;
5225;SDS011;2632;51.666;7.146;2022-07-22T02:09:03;6.33;;;2.60;;
5225;SDS011;2632;51.666;7.146;2022-07-22T02:11:30;5.77;;;3.17;;
5225;SDS011;2632;51.666;7.146;2022-07-22T02:13:57;6.07;;;2.70;;
5225;SDS011;2632;51.666;7.146;2022-07-22T02:16:23;6.93;;;3.70;;
5225;SDS011;2632;51.666;7.146;2022-07-22T02:18:50;2.43;;;2.17;;
5225;SDS011;2632;51.666;7.146;2022-07-22T02:21:19;2.50;;;2.20;;
5225;SDS011;2632;51.666;7.146;2022-07-22T02:23:45;4.83;;;2.13;;
5225;SDS011;2632;51.666;7.146;2022-07-22T02:26:12;5.57;;;2.30;;
5225;SDS011;2632;51.666;7.146;2022-07-22T02:28:39;5.03;;;2.43;;
5225;SDS011;2632;51.666;7.146;2022-07-22T02:31:05;4.90;;;3.00;;
5225;SDS011;2632;51.666;7.146;2022-07-22T02:33:32;4.60;;;2.43;;
5225;SDS011;2632;51.666;7.146;2022-07-22T02:35:59;2.77;;;2.30;;
5225;SDS011;2632;51.666;7.146;2022-07-22T02:38:25;6.60;;;3.07;;
5225;SDS011;2632;51.666;7.146;2022-07-22T02:40:52;5.30;;;2.77;;
5225;SDS011;2632;51.666;7.146;2022-07-22T02:43:19;8.70;;;3.30;;
5225;SDS011;2632;51.666;7.146;2022-07-22T02:45:46;5.20;;;2.30;;
5225;SDS011;2632;51.666;7.146;2022-07-22T02:48:13;7.53;;;2.93;;
5225;SDS011;2632;51.666;7.146;2022-07-22T02:50:44;3.03;;;1.93;;
5225;SDS011;2632;51.666;7.146;2022-07-22T02:53:12;6.40;;;2.70;;
5225;SDS011;2632;51.666;7.146;2022-07-22T02:55:39;8.13;;;2.60;;
5225;SDS011;2632;51.666;7.146;2022-07-22T02:58:06;7.37;;;3.00;;
5225;SDS011;2632;51.666;7.146;2022-07-22T03:00:37;9.43;;;3.40;;
5225;SDS011;2632;51.666;7.146;2022-07-22T03:03:04;5.47;;;2.50;;
5225;SDS011;2632;51.666;7.146;2022-07-22T03:05:31;5.37;;;2.57;;
5225;SDS011;2632;51.666;7.146;2022-07-22T03:07:58;5.67;;;2.70;;
5225;SDS011;2632;51.666;7.146;2022-07-22T03:10:24;4.90;;;2.67;;
5225;SDS011;2632;51.666;7.146;2022-07-22T03:12:51;7.03;;;2.53;;
5225;SDS011;2632;51.666;7.146;2022-07-22T03:15:17;5.57;;;2.43;;
5225;SDS011;2632;51.666;7.146;2022-07-22T03:17:44;7.57;;;2.90;;
5225;SDS011;2632;51.666;7.146;2022-07-22T03:20:11;3.97;;;2.20;;
5225;SDS011;2632;51.666;7.146;2022-07-22T03:22:38;3.70;;;2.57;;
5225;SDS011;2632;51.666;7.146;2022-07-22T03:25:04;4.80;;;2.07;;
5225;SDS011;2632;51.666;7.146;2022-07-22T03:27:31;11.43;;;3.27;;
5225;SDS011;2632;51.666;7.146;2022-07-22T03:29:58;6.33;;;2.93;;
5225;SDS011;2632;51.666;7.146;2022-07-22T03:32:25;6.30;;;2.40;;
5225;SDS011;2632;51.666;7.146;2022-07-22T03:34:51;6.57;;;3.10;;
5225;SDS011;2632;51.666;7.146;2022-07-22T03:37:18;10.60;;;2.60;;
5225;SDS011;2632;51.666;7.146;2022-07-22T03:39:45;4.37;;;2.60;;
5225;SDS011;2632;51.666;7.146;2022-07-22T03:42:11;3.23;;;2.70;;
5225;SDS011;2632;51.666;7.146;2022-07-22T03:44:38;3.67;;;2.07;;
5225;SDS011;2632;51.666;7.146;2022-07-22T03:47:05;3.23;;;2.13;;
5225;SDS011;2632;51.666;7.146;2022-07-22T03:49:31;8.00;;;3.30;;
5225;SDS011;2632;51.666;7.146;2022-07-22T03:51:58;4.30;;;2.50;;
5225;SDS011;2632;51.666;7.146;2022-07-22T03:54:25;5.80;;;2.90;;
5225;SDS011;2632;51.666;7.146;2022-07-22T03:56:51;7.93;;;3.00;;
5225;SDS011;2632;51.666;7.146;2022-07-22T03:59:18;5.30;;;2.20;;
5225;SDS011;2632;51.666;7.146;2022-07-22T04:01:45;8.60;;;2.50;;
5225;SDS011;2632;51.666;7.146;2022-07-22T04:04:11;8.13;;;3.00;;
5225;SDS011;2632;51.666;7.146;2022-07-22T04:06:38;8.20;;;3.13;;
5225;SDS011;2632;51.666;7.146;2022-07-22T04:09:05;3.77;;;2.70;;
5225;SDS011;2632;51.666;7.146;2022-07-22T04:11:31;6.50;;;2.70;;
5225;SDS011;2632;51.666;7.146;2022-07-22T04:13:58;7.37;;;2.30;;
5225;SDS011;2632;51.666;7.146;2022-07-22T04:16:26;8.40;;;3.17;;
5225;SDS011;2632;51.666;7.146;2022-07-22T04:18:53;6.97;;;2.90;;
5225;SDS011;2632;51.666;7.146;2022-07-22T04:21:20;7.30;;;3.40;;
5225;SDS011;2632;51.666;7.146;2022-07-22T04:23:46;6.90;;;2.90;;
5225;SDS011;2632;51.666;7.146;2022-07-22T04:26:13;10.43;;;3.63;;
5225;SDS011;2632;51.666;7.146;2022-07-22T04:28:40;7.87;;;3.63;;
5225;SDS011;2632;51.666;7.146;2022-07-22T04:31:06;9.23;;;3.07;;
5225;SDS011;2632;51.666;7.146;2022-07-22T04:33:33;3.17;;;2.40;;
5225;SDS011;2632;51.666;7.146;2022-07-22T04:36:00;4.23;;;2.30;;
5225;SDS011;2632;51.666;7.146;2022-07-22T04:38:26;6.53;;;3.23;;
5225;SDS011;2632;51.666;7.146;2022-07-22T04:40:53;6.30;;;2.60;;
5225;SDS011;2632;51.666;7.146;2022-07-22T04:43:20;5.80;;;3.13;;
5225;SDS011;2632;51.666;7.146;2022-07-22T04:45:47;7.60;;;3.53;;
5225;SDS011;2632;51.666;7.146;2022-07-22T04:48:14;5.60;;;2.60;;
5225;SDS011;2632;51.666;7.146;2022-07-22T04:50:41;2.47;;;2.00;;
5225;SDS011;2632;51.666;7.146;2022-07-22T04:53:08;2.90;;;2.00;;
5225;SDS011;2632;51.666;7.146;2022-07-22T04:55:37;5.63;;;2.67;;
5225;SDS011;2632;51.666;7.146;2022-07-22T04:58:03;6.83;;;3.00;;
5225;SDS011;2632;51.666;7.146;2022-07-22T05:00:30;5.73;;;2.77;;
5225;SDS011;2632;51.666;7.146;2022-07-22T05:02:57;7.10;;;2.67;;
5225;SDS011;2632;51.666;7.146;2022-07-22T05:05:24;7.90;;;3.20;;
5225;SDS011;2632;51.666;7.146;2022-07-22T05:07:51;6.80;;;2.60;;
5225;SDS011;2632;51.666;7.146;2022-07-22T05:10:17;5.40;;;2.50;;
5225;SDS011;2632;51.666;7.146;2022-07-22T05:12:46;12.30;;;3.03;;
5225;SDS011;2632;51.666;7.146;2022-07-22T05:15:13;12.60;;;3.23;;
5225;SDS011;2632;51.666;7.146;2022-07-22T05:17:40;13.37;;;3.80;;
5225;SDS011;2632;51.666;7.146;2022-07-22T05:20:07;7.17;;;3.63;;
5225;SDS011;2632;51.666;7.146;2022-07-22T05:22:34;8.43;;;4.00;;
5225;SDS011;2632;51.666;7.146;2022-07-22T05:25:03;5.67;;;3.57;;
5225;SDS011;2632;51.666;7.146;2022-07-22T05:27:30;6.80;;;3.13;;
5225;SDS011;2632;51.666;7.146;2022-07-22T05:29:57;8.80;;;3.43;;
5225;SDS011;2632;51.666;7.146;2022-07-22T05:32:24;7.30;;;3.57;;
5225;SDS011;2632;51.666;7.146;2022-07-22T05:34:51;7.73;;;3.13;;
5225;SDS011;2632;51.666;7.146;2022-07-22T05:37:17;6.97;;;3.13;;
5225;SDS011;2632;51.666;7.146;2022-07-22T05:39:44;8.53;;;4.00;;
5225;SDS011;2632;51.666;7.146;2022-07-22T05:42:11;6.10;;;2.97;;
5225;SDS011;2632;51.666;7.146;2022-07-22T05:44:37;6.00;;;3.20;;
5225;SDS011;2632;51.666;7.146;2022-07-22T05:47:04;6.23;;;2.67;;
5225;SDS011;2632;51.666;7.146;2022-07-22T05:49:31;5.50;;;2.80;;
5225;SDS011;2632;51.666;7.146;2022-07-22T05:51:57;5.23;;;2.20;;
5225;SDS011;2632;51.666;7.146;2022-07-22T05:54:27;7.40;;;2.40;;
5225;SDS011;2632;51.666;7.146;2022-07-22T05:56:54;5.60;;;2.07;;
5225;SDS011;2632;51.666;7.146;2022-07-22T05:59:20;8.07;;;2.57;;
5225;SDS011;2632;51.666;7.146;2022-07-22T06:01:47;4.67;;;2.50;;
5225;SDS011;2632;51.666;7.146;2022-07-22T06:04:14;6.37;;;2.40;;
5225;SDS011;2632;51.666;7.146;2022-07-22T06:06:41;8.67;;;3.00;;
5225;SDS011;2632;51.666;7.146;2022-07-22T06:09:08;5.60;;;2.60;;
5225;SDS011;2632;51.666;7.146;2022-07-22T06:11:34;3.60;;;1.80;;
5225;SDS011;2632;51.666;7.146;2022-07-22T06:14:01;4.97;;;1.40;;
5225;SDS011;2632;51.666;7.146;2022-07-22T06:16:28;3.67;;;1.67;;
5225;SDS011;2632;51.666;7.146;2022-07-22T06:18:54;5.00;;;1.80;;
5225;SDS011;2632;51.666;7.146;2022-07-22T06:21:22;4.83;;;1.90;;
5225;SDS011;2632;51.666;7.146;2022-07-22T06:23:48;5.90;;;2.13;;
5225;SDS011;2632;51.666;7.146;2022-07-22T06:26:15;5.80;;;2.53;;
5225;SDS011;2632;51.666;7.146;2022-07-22T06:28:41;8.83;;;1.67;;
5225;SDS011;2632;51.666;7.146;2022-07-22T06:31:08;4.30;;;1.90;;
5225;SDS011;2632;51.666;7.146;2022-07-22T06:33:35;2.10;;;1.90;;
5225;SDS011;2632;51.666;7.146;2022-07-22T06:36:03;4.33;;;2.30;;
5225;SDS011;2632;51.666;7.146;2022-07-22T06:38:30;6.03;;;2.03;;
5225;SDS011;2632;51.666;7.146;2022-07-22T06:41:06;5.07;;;2.07;;
5225;SDS011;2632;51.666;7.146;2022-07-22T06:43:33;6.37;;;1.93;;
5225;SDS011;2632;51.666;7.146;2022-07-22T06:45:59;3.70;;;2.00;;
5225;SDS011;2632;51.666;7.146;2022-07-22T06:48:26;5.20;;;2.00;;
5225;SDS011;2632;51.666;7.146;2022-07-22T06:50:53;4.73;;;2.07;;
5225;SDS011;2632;51.666;7.146;2022-07-22T06:53:20;7.07;;;2.60;;
5225;SDS011;2632;51.666;7.146;2022-07-22T06:55:47;3.93;;;1.97;;
5225;SDS011;2632;51.666;7.146;2022-07-22T06:58:14;7.53;;;2.70;;
5225;SDS011;2632;51.666;7.146;2022-07-22T07:00:40;5.07;;;2.00;;
5225;SDS011;2632;51.666;7.146;2022-07-22T07:03:07;6.20;;;2.40;;
5225;SDS011;2632;51.666;7.146;2022-07-22T07:05:54;3.90;;;1.93;;
5225;SDS011;2632;51.666;7.146;2022-07-22T07:08:21;1.80;;;1.70;;
5225;SDS011;2632;51.666;7.146;2022-07-22T07:10:47;3.00;;;1.93;;
5225;SDS011;2632;51.666;7.146;2022-07-22T07:13:14;5.53;;;2.40;;
5225;SDS011;2632;51.666;7.146;2022-07-22T07:15:41;5.80;;;2.23;;
5225;SDS011;2632;51.666;7.146;2022-07-22T07:18:08;12.00;;;2.67;;
5225;SDS011;2632;51.666;7.146;2022-07-22T07:20:34;12.33;;;2.20;;
5225;SDS011;2632;51.666;7.146;2022-07-22T07:23:01;8.53;;;2.07;;
5225;SDS011;2632;51.666;7.146;2022-07-22T07:25:29;7.17;;;2.00;;
5225;SDS011;2632;51.666;7.146;2022-07-22T07:27:56;4.37;;;2.00;;
5225;SDS011;2632;51.666;7.146;2022-07-22T07:30:22;1.87;;;1.77;;
5225;SDS011;2632;51.666;7.146;2022-07-22T07:32:50;4.93;;;1.40;;
5225;SDS011;2632;51.666;7.146;2022-07-22T07:35:16;5.23;;;2.20;;
5225;SDS011;2632;51.666;7.146;2022-07-22T07:37:43;5.30;;;1.97;;
5225;SDS011;2632;51.666;7.146;2022-07-22T07:40:10;3.07;;;1.80;;
5225;SDS011;2632;51.666;7.146;2022-07-22T07:42:36;4.30;;;2.07;;
5225;SDS011;2632;51.666;7.146;2022-07-22T07:45:11;3.43;;;1.97;;
5225;SDS011;2632;51.666;7.146;2022-07-22T07:47:38;2.83;;;1.93;;
5225;SDS011;2632;51.666;7.146;2022-07-22T07:50:05;3.37;;;2.03;;
5225;SDS011;2632;51.666;7.146;2022-07-22T07:52:40;4.40;;;2.00;;
5225;SDS011;2632;51.666;7.146;2022-07-22T07:55:17;4.30;;;1.90;;
5225;SDS011;2632;51.666;7.146;2022-07-22T07:57:45;4.00;;;2.30;;
5225;SDS011;2632;51.666;7.146;2022-07-22T08:00:15;3.73;;;1.90;;
5225;SDS011;2632;51.666;7.146;2022-07-22T08:02:46;4.00;;;2.20;;
5225;SDS011;2632;51.666;7.146;2022-07-22T08:05:13;1.70;;;1.60;;
5225;SDS011;2632;51.666;7.146;2022-07-22T08:07:41;4.60;;;2.10;;
5225;SDS011;2632;51.666;7.146;2022-07-22T08:10:08;4.17;;;2.40;;
5225;SDS011;2632;51.666;7.146;2022-07-22T08:12:55;5.27;;;2.47;;
5225;SDS011;2632;51.666;7.146;2022-07-22T08:15:25;3.20;;;1.90;;
5225;SDS011;2632;51.666;7.146;2022-07-22T08:17:53;4.70;;;1.73;;
5225;SDS011;2632;51.666;7.146;2022-07-22T08:20:20;5.97;;;2.43;;
5225;SDS011;2632;51.666;7.146;2022-07-22T08:22:48;2.27;;;1.50;;
5225;SDS011;2632;51.666;7.146;2022-07-22T08:25:15;5.90;;;2.20;;
5225;SDS011;2632;51.666;7.146;2022-07-22T08:27:42;3.53;;;2.10;;
5225;SDS011;2632;51.666;7.146;2022-07-22T08:30:08;5.33;;;2.00;;
5225;SDS011;2632;51.666;7.146;2022-07-22T08:32:36;3.23;;;1.83;;
5225;SDS011;2632;51.666;7.146;2022-07-22T08:35:03;3.03;;;1.70;;
5225;SDS011;2632;51.666;7.146;2022-07-22T08:37:30;4.30;;;2.20;;
5225;SDS011;2632;51.666;7.146;2022-07-22T08:39:57;3.57;;;1.93;;
5225;SDS011;2632;51.666;7.146;2022-07-22T08:42:25;5.27;;;2.00;;
5225;SDS011;2632;51.666;7.146;2022-07-22T08:44:54;2.50;;;1.77;;
5225;SDS011;2632;51.666;7.146;2022-07-22T08:47:30;3.00;;;1.93;;
5225;SDS011;2632;51.666;7.146;2022-07-22T08:50:09;1.83;;;1.60;;
5225;SDS011;2632;51.666;7.146;2022-07-22T08:52:36;3.10;;;2.20;;
5225;SDS011;2632;51.666;7.146;2022-07-22T08:55:03;4.20;;;1.87;;
5225;SDS011;2632;51.666;7.146;2022-07-22T08:57:31;2.60;;;2.17;;
5225;SDS011;2632;51.666;7.146;2022-07-22T08:59:59;1.90;;;1.70;;
5225;SDS011;2632;51.666;7.146;2022-07-22T09:02:26;2.97;;;1.87;;
5225;SDS011;2632;51.666;7.146;2022-07-22T09:04:58;6.63;;;2.53;;
5225;SDS011;2632;51.666;7.146;2022-07-22T09:07:50;4.60;;;2.07;;
5225;SDS011;2632;51.666;7.146;2022-07-22T09:10:17;2.70;;;1.97;;
5225;SDS011;2632;51.666;7.146;2022-07-22T09:12:55;4.97;;;2.10;;
5225;SDS011;2632;51.666;7.146;2022-07-22T09:15:32;3.17;;;2.20;;
5225;SDS011;2632;51.666;7.146;2022-07-22T09:18:02;4.10;;;2.50;;
5225;SDS011;2632;51.666;7.146;2022-07-22T09:20:32;4.40;;;2.00;;
5225;SDS011;2632;51.666;7.146;2022-07-22T09:23:00;6.40;;;2.63;;
5225;SDS011;2632;51.666;7.146;2022-07-22T09:25:28;3.63;;;2.13;;
5225;SDS011;2632;51.666;7.146;2022-07-22T09:30:35;3.83;;;2.07;;
5225;SDS011;2632;51.666;7.146;2022-07-22T09:33:08;3.07;;;2.10;;
5225;SDS011;2632;51.666;7.146;2022-07-22T09:35:35;3.20;;;2.20;;
5225;SDS011;2632;51.666;7.146;2022-07-22T09:38:04;5.80;;;2.03;;
5225;SDS011;2632;51.666;7.146;2022-07-22T09:40:33;5.30;;;2.60;;
5225;SDS011;2632;51.666;7.146;2022-07-22T09:43:03;3.30;;;2.43;;
5225;SDS011;2632;51.666;7.146;2022-07-22T09:45:32;3.33;;;2.70;;
5225;SDS011;2632;51.666;7.146;2022-07-22T09:48:00;5.63;;;2.40;;
5225;SDS011;2632;51.666;7.146;2022-07-22T09:50:28;3.13;;;2.20;;
5225;SDS011;2632;51.666;7.146;2022-07-22T09:52:58;5.50;;;2.00;;
5225;SDS011;2632;51.666;7.146;2022-07-22T09:55:29;7.83;;;2.57;;
5225;SDS011;2632;51.666;7.146;2022-07-22T09:57:57;2.60;;;2.00;;
5225;SDS011;2632;51.666;7.146;2022-07-22T10:00:24;3.40;;;2.10;;
5225;SDS011;2632;51.666;7.146;2022-07-22T10:02:54;19.47;;;2.90;;
5225;SDS011;2632;51.666;7.146;2022-07-22T10:05:26;5.07;;;2.60;;
5225;SDS011;2632;51.666;7.146;2022-07-22T10:07:55;3.70;;;2.47;;
5225;SDS011;2632;51.666;7.146;2022-07-22T10:10:26;3.50;;;2.67;;
5225;SDS011;2632;51.666;7.146;2022-07-22T10:12:57;3.40;;;2.30;;
5225;SDS011;2632;51.666;7.146;2022-07-22T10:15:25;4.77;;;2.70;;
5225;SDS011;2632;51.666;7.146;2022-07-22T10:18:01;3.60;;;2.30;;
5225;SDS011;2632;51.666;7.146;2022-07-22T10:20:31;6.43;;;2.33;;
5225;SDS011;2632;51.666;7.146;2022-07-22T10:23:03;3.40;;;2.30;;
5225;SDS011;2632;51.666;7.146;2022-07-22T10:25:49;5.83;;;2.60;;
5225;SDS011;2632;51.666;7.146;2022-07-22T10:28:30;4.37;;;2.77;;
5225;SDS011;2632;51.666;7.146;2022-07-22T10:33:53;6.13;;;2.60;;
5225;SDS011;2632;51.666;7.146;2022-07-22T10:36:32;5.30;;;2.80;;
5225;SDS011;2632;51.666;7.146;2022-07-22T10:41:36;5.93;;;2.10;;
5225;SDS011;2632;51.666;7.146;2022-07-22T10:44:05;6.57;;;2.90;;
5225;SDS011;2632;51.666;7.146;2022-07-22T10:46:48;6.87;;;3.03;;
5225;SDS011;2632;51.666;7.146;2022-07-22T10:49:18;11.73;;;2.80;;
5225;SDS011;2632;51.666;7.146;2022-07-22T10:54:32;6.90;;;2.50;;
5225;SDS011;2632;51.666;7.146;2022-07-22T10:57:04;5.20;;;2.37;;
5225;SDS011;2632;51.666;7.146;2022-07-22T10:59:30;4.87;;;2.93;;
5225;SDS011;2632;51.666;7.146;2022-07-22T11:01:57;6.80;;;3.63;;
5225;SDS011;2632;51.666;7.146;2022-07-22T11:04:25;7.23;;;5.30;;
5225;SDS011;2632;51.666;7.146;2022-07-22T11:06:53;9.03;;;6.07;;
5225;SDS011;2632;51.666;7.146;2022-07-22T11:09:23;14.07;;;6.70;;
5225;SDS011;2632;51.666;7.146;2022-07-22T11:11:57;11.43;;;7.07;;
5225;SDS011;2632;51.666;7.146;2022-07-22T11:14:32;9.13;;;6.80;;
5225;SDS011;2632;51.666;7.146;2022-07-22T11:17:08;9.30;;;6.70;;
5225;SDS011;2632;51.666;7.146;2022-07-22T11:19:37;10.30;;;6.67;;
5225;SDS011;2632;51.666;7.146;2022-07-22T11:22:06;9.07;;;6.00;;
5225;SDS011;2632;51.666;7.146;2022-07-22T11:24:35;7.97;;;5.80;;
5225;SDS011;2632;51.666;7.146;2022-07-22T11:27:03;8.83;;;5.53;;
5225;SDS011;2632;51.666;7.146;2022-07-22T11:29:37;9.30;;;5.60;;
5225;SDS011;2632;51.666;7.146;2022-07-22T11:32:07;8.40;;;6.10;;
5225;SDS011;2632;51.666;7.146;2022-07-22T11:34:36;11.53;;;6.20;;
5225;SDS011;2632;51.666;7.146;2022-07-22T11:37:04;9.30;;;6.03;;
5225;SDS011;2632;51.666;7.146;2022-07-22T11:39:31;12.33;;;6.13;;
5225;SDS011;2632;51.666;7.146;2022-07-22T11:41:58;8.23;;;6.03;;
5225;SDS011;2632;51.666;7.146;2022-07-22T11:44:29;10.23;;;5.60;;
5225;SDS011;2632;51.666;7.146;2022-07-22T11:46:58;9.20;;;6.10;;
5225;SDS011;2632;51.666;7.146;2022-07-22T11:49:26;6.90;;;5.20;;
5225;SDS011;2632;51.666;7.146;2022-07-22T11:51:54;7.47;;;5.30;;
5225;SDS011;2632;51.666;7.146;2022-07-22T11:54:21;6.73;;;5.00;;
5225;SDS011;2632;51.666;7.146;2022-07-22T11:56:48;7.17;;;5.10;;
5225;SDS011;2632;51.666;7.146;2022-07-22T11:59:22;7.00;;;4.83;;
5225;SDS011;2632;51.666;7.146;2022-07-22T12:01:49;7.83;;;5.27;;
5225;SDS011;2632;51.666;7.146;2022-07-22T12:04:17;8.73;;;5.00;;
5225;SDS011;2632;51.666;7.146;2022-07-22T12:06:46;9.00;;;5.60;;
5225;SDS011;2632;51.666;7.146;2022-07-22T12:09:14;7.30;;;4.90;;
5225;SDS011;2632;51.666;7.146;2022-07-22T12:11:53;8.50;;;4.90;;
5225;SDS011;2632;51.666;7.146;2022-07-22T12:14:28;7.03;;;4.47;;
5225;SDS011;2632;51.666;7.146;2022-07-22T12:19:33;6.40;;;4.60;;
5225;SDS011;2632;51.666;7.146;2022-07-22T12:24:40;6.67;;;4.63;;
5225;SDS011;2632;51.666;7.146;2022-07-22T12:27:10;7.37;;;4.67;;
5225;SDS011;2632;51.666;7.146;2022-07-22T12:32:06;7.83;;;5.40;;
5225;SDS011;2632;51.666;7.146;2022-07-22T12:37:13;8.30;;;5.20;;
5225;SDS011;2632;51.666;7.146;2022-07-22T12:39:56;7.80;;;5.30;;
5225;SDS011;2632;51.666;7.146;2022-07-22T12:42:38;7.90;;;5.30;;
5225;SDS011;2632;51.666;7.146;2022-07-22T12:45:11;6.97;;;4.60;;
5225;SDS011;2632;51.666;7.146;2022-07-22T12:47:44;15.33;;;6.83;;
5225;SDS011;2632;51.666;7.146;2022-07-22T12:53:12;15.70;;;5.97;;
5225;SDS011;2632;51.666;7.146;2022-07-22T12:55:45;6.87;;;5.20;;
5225;SDS011;2632;51.666;7.146;2022-07-22T12:58:27;10.10;;;5.03;;
5225;SDS011;2632;51.666;7.146;2022-07-22T13:00:56;7.07;;;5.10;;
5225;SDS011;2632;51.666;7.146;2022-07-22T13:03:25;8.50;;;6.27;;
5225;SDS011;2632;51.666;7.146;2022-07-22T13:05:54;10.03;;;6.40;;
5225;SDS011;2632;51.666;7.146;2022-07-22T13:08:25;13.60;;;6.97;;
5225;SDS011;2632;51.666;7.146;2022-07-22T13:11:08;11.03;;;7.10;;
5225;SDS011;2632;51.666;7.146;2022-07-22T13:13:34;8.50;;;6.40;;
5225;SDS011;2632;51.666;7.146;2022-07-22T13:16:01;8.23;;;6.33;;
5225;SDS011;2632;51.666;7.146;2022-07-22T13:18:28;9.73;;;6.93;;
5225;SDS011;2632;51.666;7.146;2022-07-22T13:20:54;11.70;;;7.10;;
5225;SDS011;2632;51.666;7.146;2022-07-22T13:23:21;10.07;;;7.00;;
5225;SDS011;2632;51.666;7.146;2022-07-22T13:25:48;7.73;;;6.23;;
5225;SDS011;2632;51.666;7.146;2022-07-22T13:28:20;6.23;;;5.20;;
5225;SDS011;2632;51.666;7.146;2022-07-22T13:30:47;11.27;;;7.70;;
5225;SDS011;2632;51.666;7.146;2022-07-22T13:33:14;8.10;;;6.50;;
5225;SDS011;2632;51.666;7.146;2022-07-22T13:35:42;12.27;;;6.63;;
5225;SDS011;2632;51.666;7.146;2022-07-22T13:38:09;9.43;;;6.90;;
5225;SDS011;2632;51.666;7.146;2022-07-22T13:40:41;10.90;;;7.30;;
5225;SDS011;2632;51.666;7.146;2022-07-22T13:43:20;8.43;;;6.60;;
5225;SDS011;2632;51.666;7.146;2022-07-22T13:45:49;10.23;;;7.10;;
5225;SDS011;2632;51.666;7.146;2022-07-22T13:48:16;8.33;;;6.30;;
5225;SDS011;2632;51.666;7.146;2022-07-22T13:50:47;8.67;;;7.77;;
5225;SDS011;2632;51.666;7.146;2022-07-22T13:53:13;10.23;;;8.77;;
5225;SDS011;2632;51.666;7.146;2022-07-22T13:55:40;14.10;;;9.00;;
5225;SDS011;2632;51.666;7.146;2022-07-22T13:58:07;7.50;;;6.80;;
5225;SDS011;2632;51.666;7.146;2022-07-22T14:00:34;12.27;;;8.67;;
5225;SDS011;2632;51.666;7.146;2022-07-22T14:03:01;9.87;;;7.40;;
5225;SDS011;2632;51.666;7.146;2022-07-22T14:05:28;8.73;;;7.47;;
5225;SDS011;2632;51.666;7.146;2022-07-22T14:07:55;10.43;;;8.20;;
5225;SDS011;2632;51.666;7.146;2022-07-22T14:10:21;9.83;;;7.83;;
5225;SDS011;2632;51.666;7.146;2022-07-22T14:12:48;9.97;;;7.00;;
5225;SDS011;2632;51.666;7.146;2022-07-22T14:15:16;8.57;;;6.93;;
5225;SDS011;2632;51.666;7.146;2022-07-22T14:17:42;7.93;;;7.13;;
5225;SDS011;2632;51.666;7.146;2022-07-22T14:20:10;9.27;;;8.30;;
5225;SDS011;2632;51.666;7.146;2022-07-22T14:22:37;9.40;;;6.17;;
5225;SDS011;2632;51.666;7.146;2022-07-22T14:25:04;11.50;;;7.57;;
5225;SDS011;2632;51.666;7.146;2022-07-22T14:27:31;8.03;;;7.13;;
5225;SDS011;2632;51.666;7.146;2022-07-22T14:29:58;7.53;;;6.83;;
5225;SDS011;2632;51.666;7.146;2022-07-22T14:32:24;9.33;;;7.20;;
5225;SDS011;2632;51.666;7.146;2022-07-22T14:34:51;8.00;;;5.47;;
5225;SDS011;2632;51.666;7.146;2022-07-22T14:37:17;9.77;;;5.87;;
5225;SDS011;2632;51.666;7.146;2022-07-22T14:39:51;10.23;;;5.17;;
5225;SDS011;2632;51.666;7.146;2022-07-22T14:42:18;6.33;;;4.30;;
5225;SDS011;2632;51.666;7.146;2022-07-22T14:44:45;5.60;;;4.50;;
5225;SDS011;2632;51.666;7.146;2022-07-22T14:47:12;7.57;;;3.67;;
5225;SDS011;2632;51.666;7.146;2022-07-22T14:49:38;8.33;;;4.40;;
5225;SDS011;2632;51.666;7.146;2022-07-22T14:52:05;7.57;;;3.97;;
5225;SDS011;2632;51.666;7.146;2022-07-22T14:54:32;6.40;;;4.77;;
5225;SDS011;2632;51.666;7.146;2022-07-22T14:56:58;11.07;;;5.43;;
5225;SDS011;2632;51.666;7.146;2022-07-22T14:59:25;7.20;;;5.80;;
5225;SDS011;2632;51.666;7.146;2022-07-22T15:01:52;5.83;;;5.20;;
5225;SDS011;2632;51.666;7.146;2022-07-22T15:04:19;6.40;;;4.77;;
5225;SDS011;2632;51.666;7.146;2022-07-22T15:06:46;7.00;;;4.87;;
5225;SDS011;2632;51.666;7.146;2022-07-22T15:09:12;5.43;;;4.47;;
5225;SDS011;2632;51.666;7.146;2022-07-22T15:11:39;7.07;;;4.50;;
5225;SDS011;2632;51.666;7.146;2022-07-22T15:14:06;8.17;;;4.33;;
5225;SDS011;2632;51.666;7.146;2022-07-22T15:16:33;9.93;;;5.30;;
5225;SDS011;2632;51.666;7.146;2022-07-22T15:19:00;4.57;;;4.13;;
5225;SDS011;2632;51.666;7.146;2022-07-22T15:21:26;4.70;;;4.30;;
5225;SDS011;2632;51.666;7.146;2022-07-22T15:23:57;4.80;;;4.13;;
5225;SDS011;2632;51.666;7.146;2022-07-22T15:26:25;12.33;;;8.93;;
5225;SDS011;2632;51.666;7.146;2022-07-22T15:28:51;15.37;;;7.43;;
5225;SDS011;2632;51.666;7.146;2022-07-22T15:31:19;8.40;;;6.60;;
5225;SDS011;2632;51.666;7.146;2022-07-22T15:33:46;6.50;;;4.97;;
5225;SDS011;2632;51.666;7.146;2022-07-22T15:36:12;6.30;;;5.70;;
5225;SDS011;2632;51.666;7.146;2022-07-22T15:38:39;11.13;;;4.80;;
5225;SDS011;2632;51.666;7.146;2022-07-22T15:41:07;5.43;;;4.30;;
5225;SDS011;2632;51.666;7.146;2022-07-22T15:43:34;5.53;;;4.30;;
5225;SDS011;2632;51.666;7.146;2022-07-22T15:46:02;6.03;;;4.87;;